Time;durP1;ratioP1;P1;durP2;ratioP2;P2;SDS_P1;SDS_P2;PMS_P1;PMS_P2;Temp;Humidity;BMP_temperature;BMP_pressure;BME280_temperature;BME280_humidity;BME280_pressure;Samples;Min_cycle;Max_cycle;Signal;HPM_P1;HPM_P2
2021/01/20 00:00:40;;;;;;;31.75;8.85;;;;;;;7.06;90.45;99888.75;4974479;28;20047;-59
2021/01/20 00:03:06;;;;;;;30.80;9.55;;;;;;;7.10;90.05;99908.41;4973509;28;20452;-60
2021/01/20 00:05:34;;;;;;;32.80;9.23;;;;;;;7.12;89.56;99882.03;4974593;28;20396;-58
2021/01/20 00:08:01;;;;;;;26.70;8.65;;;;;;;7.13;89.48;99869.81;4974066;28;20142;-60
2021/01/20 00:10:28;;;;;;;28.80;9.30;;;;;;;7.12;89.11;99856.22;4973533;28;20142;-56
2021/01/20 00:12:55;;;;;;;27.40;8.80;;;;;;;7.10;89.32;99867.63;4974083;28;20035;-57
2021/01/20 00:15:23;;;;;;;31.10;9.45;;;;;;;7.09;89.43;99874.28;4974203;28;20057;-59
2021/01/20 00:17:51;;;;;;;34.92;9.43;;;;;;;7.04;89.46;99877.13;4972687;28;20074;-58
2021/01/20 00:20:18;;;;;;;35.78;9.38;;;;;;;7.06;89.65;99863.78;4970621;28;20046;-58
2021/01/20 00:22:47;;;;;;;26.48;8.65;;;;;;;7.08;89.70;99861.56;4973221;28;20059;-57
2021/01/20 00:25:16;;;;;;;27.23;9.45;;;;;;;7.10;89.50;99873.19;4973904;28;20051;-59
2021/01/20 00:27:43;;;;;;;24.52;8.70;;;;;;;7.12;89.50;99848.72;4973963;28;20054;-55
2021/01/20 00:30:11;;;;;;;33.10;10.10;;;;;;;7.13;89.50;99853.16;4971114;28;20177;-56
2021/01/20 00:32:38;;;;;;;29.42;8.95;;;;;;;7.08;89.34;99842.13;4973999;28;20500;-58
2021/01/20 00:35:07;;;;;;;35.80;9.35;;;;;;;7.04;89.33;99843.03;4973381;28;20058;-53
2021/01/20 00:37:34;;;;;;;31.50;9.30;;;;;;;7.08;89.25;99841.31;4973120;28;20051;-52
2021/01/20 00:40:02;;;;;;;23.75;7.93;;;;;;;7.09;89.35;99838.25;4973238;28;20061;-55
2021/01/20 00:42:29;;;;;;;32.15;8.85;;;;;;;7.07;89.04;99843.25;4973412;28;20190;-56
2021/01/20 00:44:56;;;;;;;20.17;8.52;;;;;;;7.08;89.32;99836.59;4972784;28;20117;-56
2021/01/20 00:47:23;;;;;;;35.55;10.05;;;;;;;7.05;89.16;99828.03;4973602;28;20480;-58
2021/01/20 00:49:50;;;;;;;27.85;9.02;;;;;;;7.06;89.50;99830.50;4971858;28;20042;-60
2021/01/20 00:52:17;;;;;;;23.13;9.10;;;;;;;7.06;89.38;99830.50;4973236;28;20042;-63
2021/01/20 00:54:44;;;;;;;30.98;9.30;;;;;;;7.09;89.46;99818.00;4973316;28;20057;-64
2021/01/20 00:57:12;;;;;;;33.42;9.82;;;;;;;7.07;89.44;99818.28;4972227;28;20117;-64
2021/01/20 00:59:39;;;;;;;30.63;9.40;;;;;;;7.07;89.15;99836.88;4968871;28;20058;-66
2021/01/20 01:02:06;;;;;;;32.85;10.02;;;;;;;7.08;89.09;99833.81;4973187;28;20148;-66
2021/01/20 01:04:38;;;;;;;26.65;9.23;;;;;;;7.06;89.08;99838.84;4971665;28;20050;-63
2021/01/20 01:07:06;;;;;;;36.17;10.43;;;;;;;7.06;89.00;99805.53;4971675;28;20073;-63
2021/01/20 01:09:36;;;;;;;41.40;9.75;;;;;;;7.08;89.27;99822.72;4972927;28;20571;-62
2021/01/20 01:12:20;;;;;;;27.20;9.30;;;;;;;7.10;89.11;99837.13;4971340;28;20456;-61
2021/01/20 01:14:47;;;;;;;33.75;9.63;;;;;;;7.12;89.35;99832.09;4971100;28;20054;-60
2021/01/20 01:17:20;;;;;;;33.60;9.93;;;;;;;7.13;89.28;99817.09;4972005;28;20522;-60
2021/01/20 01:19:54;;;;;;;33.70;11.20;;;;;;;7.12;89.29;99821.00;4971388;28;20047;-61
2021/01/20 01:22:21;;;;;;;28.17;9.70;;;;;;;7.13;89.03;99803.22;4969495;28;20504;-58
2021/01/20 01:24:50;;;;;;;32.80;9.68;;;;;;;7.15;89.15;99809.28;4971449;28;20081;-57
2021/01/20 01:27:17;;;;;;;30.23;10.10;;;;;;;7.12;89.04;99787.72;4966491;28;20046;-56
2021/01/20 01:29:46;;;;;;;31.70;10.48;;;;;;;7.14;89.34;99798.50;4971479;28;20138;-57
2021/01/20 01:32:31;;;;;;;30.48;11.15;;;;;;;7.14;89.08;99802.09;4983377;28;20043;-56
2021/01/20 01:35:00;;;;;;;32.15;10.23;;;;;;;7.13;89.26;99786.59;4970876;28;20105;-57
2021/01/20 01:37:27;;;;;;;35.40;11.10;;;;;;;7.13;89.10;99786.59;4972388;28;20062;-60
2021/01/20 01:40:09;;;;;;;32.13;10.02;;;;;;;7.11;89.25;99786.06;4972539;28;20518;-57
2021/01/20 01:43:02;;;;;;;26.80;9.85;;;;;;;7.12;89.50;99768.28;4961486;28;20076;-53
2021/01/20 01:45:31;;;;;;;29.85;10.90;;;;;;;7.13;89.17;99806.00;4971181;28;20054;-58
2021/01/20 01:47:58;;;;;;;36.08;11.07;;;;;;;7.14;89.15;99788.22;4982646;28;20465;-60
2021/01/20 01:50:25;;;;;;;30.52;10.65;;;;;;;7.12;89.28;99781.34;4971110;28;20051;-59
2021/01/20 01:52:52;;;;;;;36.80;10.50;;;;;;;7.12;89.43;99781.34;4972639;28;20403;-56
2021/01/20 01:55:42;;;;;;;29.63;10.85;;;;;;;7.12;89.75;99779.38;4966678;28;20178;-57
2021/01/20 01:58:38;;;;;;;32.60;10.68;;;;;;;7.11;89.46;99777.72;4965189;28;20190;-55
2021/01/20 02:01:13;;;;;;;32.95;10.65;;;;;;;7.11;89.58;99772.19;4970606;28;20050;-56
2021/01/20 02:03:50;;;;;;;35.97;11.55;;;;;;;7.09;89.53;99766.13;4968302;28;20056;-58
2021/01/20 02:06:19;;;;;;;30.10;10.55;;;;;;;7.10;89.59;99767.75;4970831;28;20411;-53
2021/01/20 02:08:54;;;;;;;33.60;11.32;;;;;;;7.10;89.93;99765.00;4976015;28;20056;-56
2021/01/20 02:11:37;;;;;;;27.90;9.77;;;;;;;7.11;90.09;99750.00;4972002;28;20063;-58
2021/01/20 02:14:11;;;;;;;29.55;11.63;;;;;;;7.13;89.89;99744.16;4968686;28;20554;-55
2021/01/20 02:17:01;;;;;;;31.73;11.15;;;;;;;7.11;89.63;99761.09;4985144;28;20082;-55
2021/01/20 02:20:00;;;;;;;29.67;10.55;;;;;;;7.15;89.73;99751.03;4971150;28;20057;-56
2021/01/20 02:22:27;;;;;;;;;;;;;;;7.08;89.59;99738.69;4971893;28;20100;-58
2021/01/20 02:25:56;;;;;;;26.58;9.23;;;;;;;7.13;89.71;99744.16;4957058;28;19954;-54
2021/01/20 02:29:24;;;;;;;34.08;10.30;;;;;;;7.13;89.68;99742.19;4902946;29;20453;-56
2021/01/20 02:32:01;;;;;;;31.38;11.00;;;;;;;7.12;90.09;99742.50;4970840;28;20099;-53
2021/01/20 02:34:32;;;;;;;32.65;10.43;;;;;;;7.14;89.79;99741.06;4971982;28;20053;-58
2021/01/20 02:37:01;;;;;;;27.65;10.52;;;;;;;7.13;89.59;99719.19;4970351;28;20104;-54
2021/01/20 02:40:03;;;;;;;29.17;10.88;;;;;;;7.17;90.13;99720.22;4962752;28;20173;-53
2021/01/20 02:42:47;;;;;;;29.88;11.40;;;;;;;7.13;89.54;99728.31;4975760;28;20047;-56
2021/01/20 02:45:21;;;;;;;26.30;11.13;;;;;;;7.15;89.49;99737.16;4974104;28;20070;-57
2021/01/20 02:47:52;;;;;;;28.00;10.55;;;;;;;7.18;89.72;99728.25;4975330;28;20078;-56
2021/01/20 02:50:22;;;;;;;30.52;10.90;;;;;;;7.19;89.73;99707.66;4972336;28;20496;-58
2021/01/20 02:52:57;;;;;;;28.60;10.75;;;;;;;7.20;89.69;99720.41;4972850;28;20055;-58
2021/01/20 02:55:48;;;;;;;29.90;10.88;;;;;;;7.18;89.70;99722.69;4974418;28;20190;-58
2021/01/20 02:58:46;;;;;;;31.20;10.43;;;;;;;7.20;89.82;99694.63;4959195;28;20078;-58
2021/01/20 03:01:29;;;;;;;31.08;11.18;;;;;;;7.23;90.00;99697.59;4975808;28;20065;-56
2021/01/20 03:04:00;;;;;;;27.13;11.82;;;;;;;7.25;89.76;99711.19;4975299;28;20074;-56
2021/01/20 03:06:28;;;;;;;29.85;10.60;;;;;;;7.26;89.90;99710.06;4975331;28;20716;-56
2021/01/20 03:08:55;;;;;;;30.42;11.05;;;;;;;7.26;89.58;99707.28;4975136;28;20408;-57
2021/01/20 03:11:22;;;;;;;27.48;11.73;;;;;;;7.26;89.76;99702.56;4975685;28;20065;-55
2021/01/20 03:13:50;;;;;;;28.92;11.57;;;;;;;7.27;89.89;99695.06;4974155;28;20408;-55
2021/01/20 03:16:23;;;;;;;30.35;11.80;;;;;;;7.24;90.05;99699.25;4975423;28;20054;-58
2021/01/20 03:18:50;;;;;;;32.47;11.20;;;;;;;7.27;89.92;99692.28;4974613;28;20059;-59
2021/01/20 03:21:17;;;;;;;32.67;12.95;;;;;;;7.27;90.29;99703.38;4975462;28;20440;-55
2021/01/20 03:23:44;;;;;;;31.10;12.48;;;;;;;7.28;90.22;99684.78;4975055;28;20054;-55
2021/01/20 03:26:11;;;;;;;26.08;10.85;;;;;;;7.30;90.10;99685.28;4974240;28;20133;-58
2021/01/20 03:28:37;;;;;;;26.35;10.93;;;;;;;7.31;89.98;99692.50;4975425;28;20055;-56
2021/01/20 03:31:04;;;;;;;30.10;11.68;;;;;;;7.31;90.07;99692.50;4974878;28;20419;-58
2021/01/20 03:33:31;;;;;;;29.85;12.80;;;;;;;7.32;89.87;99683.03;4974640;28;20054;-56
2021/01/20 03:35:57;;;;;;;34.63;11.60;;;;;;;7.31;90.27;99682.22;4974996;28;20051;-55
2021/01/20 03:38:25;;;;;;;34.33;11.77;;;;;;;7.32;89.97;99680.25;4975256;28;20058;-54
2021/01/20 03:40:52;;;;;;;30.17;11.73;;;;;;;7.32;90.14;99681.09;4974201;28;20046;-53
2021/01/20 03:43:19;;;;;;;30.38;12.38;;;;;;;7.38;90.03;99684.59;4974475;28;20051;-59
2021/01/20 03:45:45;;;;;;;28.27;11.80;;;;;;;7.37;90.24;99682.94;4974524;28;20066;-55
2021/01/20 03:48:12;;;;;;;33.22;12.43;;;;;;;7.38;90.17;99679.03;4974535;28;20058;-57
2021/01/20 03:50:39;;;;;;;31.77;12.27;;;;;;;7.38;89.95;99676.28;4974964;28;20054;-59
2021/01/20 03:53:06;;;;;;;30.60;11.98;;;;;;;7.42;89.86;99671.72;4973763;28;20396;-55
2021/01/20 03:55:33;;;;;;;30.65;11.63;;;;;;;7.42;89.79;99677.28;4973731;28;20065;-56
2021/01/20 03:58:00;;;;;;;32.58;11.27;;;;;;;7.40;90.02;99676.75;4964452;28;20084;-53
2021/01/20 04:00:27;;;;;;;33.17;12.73;;;;;;;7.40;90.04;99674.81;4974251;28;20495;-59
2021/01/20 04:02:54;;;;;;;37.20;12.23;;;;;;;7.40;89.80;99658.16;4973864;28;20078;-57
2021/01/20 04:05:28;;;;;;;35.67;12.50;;;;;;;7.37;90.23;99669.06;4972935;28;20053;-52
2021/01/20 04:07:54;;;;;;;32.05;12.07;;;;;;;7.40;90.08;99651.78;4973643;28;20039;-49
2021/01/20 04:10:21;;;;;;;34.75;12.07;;;;;;;7.38;89.91;99643.78;4974477;28;20054;-57
2021/01/20 04:12:49;;;;;;;31.73;12.48;;;;;;;7.40;90.26;99657.34;4974031;28;20420;-55
2021/01/20 04:15:16;;;;;;;32.33;12.00;;;;;;;7.42;90.11;99639.25;4973689;28;20049;-53
2021/01/20 04:17:43;;;;;;;32.80;11.90;;;;;;;7.40;89.73;99641.50;4973867;28;20492;-56
2021/01/20 04:20:11;;;;;;;29.60;11.52;;;;;;;7.38;89.98;99629.91;4974122;28;20055;-57
2021/01/20 04:22:38;;;;;;;25.90;10.88;;;;;;;7.39;89.82;99639.88;4973621;28;20078;-57
2021/01/20 04:25:06;;;;;;;28.00;10.93;;;;;;;7.42;89.84;99638.44;4974270;28;20130;-56
2021/01/20 04:27:32;;;;;;;31.48;12.02;;;;;;;7.44;89.75;99631.44;4973849;28;20400;-54
2021/01/20 04:30:00;;;;;;;27.30;11.65;;;;;;;7.45;90.05;99618.38;4973569;28;20086;-59
2021/01/20 04:32:27;;;;;;;25.52;11.15;;;;;;;7.44;89.53;99613.97;4972192;28;20139;-58
2021/01/20 04:34:54;;;;;;;35.88;12.40;;;;;;;7.42;89.61;99613.44;4973868;28;20056;-54
2021/01/20 04:37:21;;;;;;;28.52;11.55;;;;;;;7.43;89.63;99613.13;4973090;28;20443;-60
2021/01/20 04:39:47;;;;;;;32.05;12.07;;;;;;;7.43;89.63;99609.53;4974002;28;20058;-59
2021/01/20 04:42:14;;;;;;;32.30;11.20;;;;;;;7.43;89.77;99607.59;4973396;28;20399;-53
2021/01/20 04:44:41;;;;;;;32.50;11.73;;;;;;;7.42;89.74;99613.44;4973285;28;20419;-57
2021/01/20 04:47:10;;;;;;;32.35;12.07;;;;;;;7.41;89.67;99595.97;4973256;28;20054;-57
2021/01/20 04:49:39;;;;;;;30.63;11.35;;;;;;;7.42;89.61;99602.34;4973485;28;20058;-56
2021/01/20 04:52:09;;;;;;;31.55;11.05;;;;;;;7.39;89.28;99597.44;4972835;28;20050;-58
2021/01/20 04:54:37;;;;;;;33.88;11.40;;;;;;;7.40;89.42;99599.88;4973293;28;20492;-56
2021/01/20 04:57:05;;;;;;;29.00;11.77;;;;;;;7.39;89.25;99587.16;4972754;28;20054;-56
2021/01/20 04:59:32;;;;;;;33.47;12.07;;;;;;;7.43;89.02;99584.56;4973185;28;20049;-57
2021/01/20 05:01:59;;;;;;;29.85;10.70;;;;;;;7.42;89.51;99594.03;4973044;28;20054;-57
2021/01/20 05:04:27;;;;;;;29.08;10.57;;;;;;;7.43;89.19;99582.63;4972348;28;20456;-57
2021/01/20 05:06:57;;;;;;;29.15;10.13;;;;;;;7.46;89.21;99586.72;4973249;28;20091;-57
2021/01/20 05:09:24;;;;;;;36.70;11.60;;;;;;;7.44;89.12;99566.78;4972917;28;20572;-56
2021/01/20 05:11:50;;;;;;;31.05;11.27;;;;;;;7.46;88.89;99583.94;4972658;28;20124;-56
2021/01/20 05:14:18;;;;;;;32.55;11.73;;;;;;;7.44;88.65;99570.38;4972698;28;20165;-59
2021/01/20 05:16:49;;;;;;;27.60;11.18;;;;;;;7.40;88.87;99562.97;4972913;28;20540;-59
2021/01/20 05:19:17;;;;;;;30.50;10.07;;;;;;;7.43;88.98;99573.47;4972285;28;20043;-53
2021/01/20 05:22:04;;;;;;;30.55;10.80;;;;;;;7.43;88.81;99574.28;4973201;28;20508;-55
2021/01/20 05:24:32;;;;;;;31.38;11.35;;;;;;;7.42;89.04;99555.16;4972560;28;20113;-54
2021/01/20 05:26:59;;;;;;;31.25;10.77;;;;;;;7.43;89.20;99560.41;4972125;28;20065;-59
2021/01/20 05:29:27;;;;;;;28.95;10.48;;;;;;;7.40;89.39;99558.25;4972817;28;20043;-55
2021/01/20 05:31:53;;;;;;;33.78;10.77;;;;;;;7.37;89.75;99561.66;4972995;28;20117;-59
2021/01/20 05:34:29;;;;;;;26.20;10.65;;;;;;;7.35;89.95;99565.88;4972036;28;20051;-57
2021/01/20 05:37:05;;;;;;;33.33;11.10;;;;;;;7.32;90.11;99580.38;4972960;28;20085;-56
2021/01/20 05:39:33;;;;;;;31.88;11.27;;;;;;;7.25;90.50;99559.41;4971743;28;20133;-63
2021/01/20 05:42:01;;;;;;;31.30;11.02;;;;;;;7.23;90.93;99558.88;4972449;28;20061;-58
2021/01/20 05:44:28;;;;;;;24.13;10.43;;;;;;;7.20;91.29;99542.84;4972114;28;20046;-58
2021/01/20 05:46:55;;;;;;;37.35;11.80;;;;;;;7.20;91.46;99544.81;4972298;28;20141;-60
2021/01/20 05:49:24;;;;;;;31.42;11.73;;;;;;;7.17;91.50;99553.78;4972252;28;20049;-60
2021/01/20 05:51:51;;;;;;;36.92;11.82;;;;;;;7.12;91.86;99551.91;4972444;28;20055;-53
2021/01/20 05:54:34;;;;;;;32.88;11.35;;;;;;;7.12;91.42;99545.53;4971979;28;20072;-57
2021/01/20 05:57:17;;;;;;;30.25;11.23;;;;;;;7.13;92.03;99553.56;4962560;28;20050;-57
2021/01/20 05:59:47;;;;;;;28.77;10.70;;;;;;;7.11;92.22;99543.91;4972441;28;20412;-55
2021/01/20 06:02:15;;;;;;;32.42;11.52;;;;;;;7.11;92.09;99544.72;4971846;28;20150;-57
2021/01/20 06:04:43;;;;;;;27.83;10.63;;;;;;;7.11;91.86;99543.91;4972034;28;20051;-55
2021/01/20 06:07:12;;;;;;;31.45;10.98;;;;;;;7.08;91.94;99531.47;4972509;28;20050;-54
2021/01/20 06:09:41;;;;;;;29.27;11.05;;;;;;;7.05;92.18;99529.31;4970310;28;20134;-59
2021/01/20 06:12:10;;;;;;;36.85;12.30;;;;;;;7.05;92.60;99542.34;4972081;28;20129;-54
2021/01/20 06:14:37;;;;;;;32.25;11.55;;;;;;;7.03;92.90;99520.47;4971611;28;20051;-58
2021/01/20 06:17:14;;;;;;;30.58;11.35;;;;;;;7.01;92.94;99528.28;4975557;28;20046;-54
2021/01/20 06:19:46;;;;;;;31.67;11.23;;;;;;;6.97;93.19;99537.53;4976461;28;20125;-53
2021/01/20 06:22:15;;;;;;;34.70;12.10;;;;;;;6.96;92.92;99535.91;4974948;28;20046;-52
2021/01/20 06:24:47;;;;;;;39.40;11.73;;;;;;;6.95;93.55;99528.69;4975985;28;20058;-56
2021/01/20 06:27:24;;;;;;;29.77;12.75;;;;;;;6.94;93.26;99538.16;4975996;28;20086;-52
2021/01/20 06:30:05;;;;;;;35.60;12.20;;;;;;;6.95;93.58;99528.69;4975637;28;20105;-56
2021/01/20 06:32:35;;;;;;;31.50;11.93;;;;;;;6.97;93.66;99516.19;4976019;28;20050;-51
2021/01/20 06:35:03;;;;;;;29.90;11.55;;;;;;;7.01;93.20;99533.00;4975999;28;20078;-53
2021/01/20 06:37:41;;;;;;;30.60;11.32;;;;;;;7.03;93.13;99517.69;4975161;28;20142;-55
2021/01/20 06:40:50;;;;;;;30.17;11.57;;;;;;;7.04;93.00;99524.88;4975604;28;20121;-57
2021/01/20 06:43:46;;;;;;;24.42;10.10;;;;;;;7.08;92.90;99534.25;4973755;28;20086;-52
2021/01/20 06:46:14;;;;;;;30.05;11.48;;;;;;;7.12;92.47;99549.13;4975509;28;20069;-52
2021/01/20 06:49:03;;;;;;;34.05;10.93;;;;;;;7.15;92.44;99531.88;4965557;28;20118;-54
2021/01/20 06:51:32;;;;;;;35.08;9.98;;;;;;;7.16;92.13;99519.66;4974958;28;20050;-52
2021/01/20 06:54:15;;;;;;;32.58;10.13;;;;;;;7.22;92.15;99529.50;4975722;28;20050;-55
2021/01/20 06:56:45;;;;;;;31.75;10.48;;;;;;;7.22;91.92;99512.84;4974578;28;20133;-55
2021/01/20 06:59:27;;;;;;;31.45;11.40;;;;;;;7.23;92.01;99522.81;4975775;28;20141;-52
2021/01/20 07:02:13;;;;;;;;;;;;;;;7.17;91.87;99517.72;4975819;28;20547;-57
2021/01/20 07:04:58;;;;;;;32.03;10.23;;;;;;;7.22;91.99;99506.47;4974871;28;19955;-57
2021/01/20 07:08:01;;;;;;;29.17;10.65;;;;;;;7.24;91.85;99518.09;4975427;28;20053;-57
2021/01/20 07:10:32;;;;;;;;;;;;;;;7.22;91.53;99523.94;4975888;28;20047;-58
2021/01/20 07:13:19;;;;;;;28.30;8.85;;;;;;;7.26;91.35;99513.06;4975207;28;19969;-59
2021/01/20 07:15:54;;;;;;;22.63;8.90;;;;;;;7.29;91.33;99518.00;4975440;28;20055;-53
2021/01/20 07:18:23;;;;;;;31.13;9.88;;;;;;;7.31;91.24;99526.00;4974587;28;20142;-54
2021/01/20 07:20:51;;;;;;;32.80;9.35;;;;;;;7.31;90.96;99521.28;4975289;28;20046;-57
2021/01/20 07:23:18;;;;;;;28.08;9.55;;;;;;;7.33;91.13;99509.88;4974783;28;20525;-55
2021/01/20 07:25:48;;;;;;;33.45;10.68;;;;;;;7.34;90.96;99519.84;4974839;28;20055;-57
2021/01/20 07:28:14;;;;;;;33.63;10.13;;;;;;;7.34;90.87;99526.22;4974703;28;20081;-56
2021/01/20 07:30:41;;;;;;;27.20;9.45;;;;;;;7.37;90.63;99520.03;4975111;28;20130;-54
2021/01/20 07:33:17;;;;;;;27.33;8.90;;;;;;;7.41;90.80;99521.03;4974105;28;20530;-59
2021/01/20 07:35:44;;;;;;;31.10;10.02;;;;;;;7.38;90.70;99515.31;4975093;28;20471;-55
2021/01/20 07:38:11;;;;;;;33.40;9.77;;;;;;;7.38;90.57;99521.69;4974406;28;20063;-55
2021/01/20 07:40:39;;;;;;;25.73;8.77;;;;;;;7.40;90.07;99513.03;4974388;28;20141;-51
2021/01/20 07:43:06;;;;;;;27.60;8.52;;;;;;;7.41;90.45;99517.44;4974603;28;20054;-55
2021/01/20 07:45:35;;;;;;;26.00;8.45;;;;;;;7.44;90.20;99505.72;4964123;28;20058;-53
2021/01/20 07:48:04;;;;;;;26.63;8.60;;;;;;;7.44;90.12;99502.94;4973824;28;20404;-59
2021/01/20 07:50:41;;;;;;;29.73;8.70;;;;;;;7.45;90.02;99519.28;4974570;28;20061;-53
2021/01/20 07:53:11;;;;;;;26.90;7.97;;;;;;;7.48;90.11;99548.38;4970114;28;20109;-59
2021/01/20 07:55:38;;;;;;;23.73;7.97;;;;;;;7.50;90.22;99523.91;4974438;28;20469;-55
2021/01/20 07:58:05;;;;;;;28.38;8.30;;;;;;;7.50;90.03;99521.13;4973916;28;20074;-58
2021/01/20 08:00:44;;;;;;;23.27;7.68;;;;;;;7.50;89.83;99518.38;4973453;28;20051;-59
2021/01/20 08:03:11;;;;;;;26.55;8.10;;;;;;;7.50;89.92;99524.75;4973553;28;20137;-59
2021/01/20 08:05:41;;;;;;;26.13;7.18;;;;;;;7.52;89.93;99510.56;4973975;28;20089;-59
2021/01/20 08:08:13;;;;;;;23.30;7.25;;;;;;;7.56;89.85;99528.22;4973445;28;20090;-58
2021/01/20 08:10:43;;;;;;;29.00;8.30;;;;;;;7.52;89.62;99528.03;4974156;28;20186;-55
2021/01/20 08:13:14;;;;;;;22.15;8.18;;;;;;;7.54;89.70;99530.50;4973803;28;20057;-59
2021/01/20 08:15:43;;;;;;;22.50;7.47;;;;;;;7.55;89.75;99532.13;4971386;28;20459;-57
2021/01/20 08:18:13;;;;;;;20.23;7.18;;;;;;;7.55;89.87;99534.91;4974156;28;20070;-55
2021/01/20 08:20:42;;;;;;;21.85;7.25;;;;;;;7.54;89.43;99542.41;4974013;28;20130;-59
2021/01/20 08:23:24;;;;;;;25.33;7.65;;;;;;;7.55;89.59;99534.91;4954025;28;20051;-59
2021/01/20 08:25:51;;;;;;;26.33;7.50;;;;;;;7.55;90.01;99516.31;4973391;28;20385;-60
2021/01/20 08:28:18;;;;;;;29.60;6.97;;;;;;;7.56;89.68;99528.22;4966976;28;20142;-58
2021/01/20 08:30:45;;;;;;;21.48;7.60;;;;;;;7.59;89.90;99527.63;4973618;28;20065;-60
2021/01/20 08:33:17;;;;;;;21.08;6.35;;;;;;;7.59;89.70;99522.84;4973762;28;20043;-58
2021/01/20 08:35:56;;;;;;;23.63;7.30;;;;;;;7.57;89.73;99519.59;4972791;28;20420;-60
2021/01/20 08:38:26;;;;;;;18.95;6.63;;;;;;;7.61;89.67;99508.66;4972916;28;20130;-60
2021/01/20 08:41:09;;;;;;;17.65;6.40;;;;;;;7.62;89.58;99513.06;4973222;28;20034;-59
2021/01/20 08:43:36;;;;;;;26.17;7.55;;;;;;;7.62;89.79;99518.63;4973151;28;20086;-57
2021/01/20 08:46:21;;;;;;;22.65;6.43;;;;;;;7.63;89.44;99503.63;4973106;28;20077;-55
2021/01/20 08:48:54;;;;;;;20.23;6.50;;;;;;;7.66;89.62;99521.59;4973375;28;20058;-52
2021/01/20 08:51:22;;;;;;;22.23;6.22;;;;;;;7.63;89.35;99523.06;4972424;28;20058;-56
2021/01/20 08:53:49;;;;;;;21.38;6.45;;;;;;;7.65;89.38;99504.13;4973168;28;20137;-56
2021/01/20 08:56:24;;;;;;;19.20;6.50;;;;;;;7.66;89.45;99511.31;4972491;28;20042;-55
2021/01/20 08:59:08;;;;;;;20.02;6.85;;;;;;;7.66;89.03;99511.31;4973208;28;20051;-57
2021/01/20 09:01:35;;;;;;;19.83;6.18;;;;;;;7.68;89.19;99508.25;4972767;28;20134;-54
2021/01/20 09:04:02;;;;;;;19.27;6.88;;;;;;;7.70;88.98;99503.19;4972344;28;20456;-57
2021/01/20 09:06:30;;;;;;;21.38;6.75;;;;;;;7.70;88.68;99501.25;4972545;28;20051;-57
2021/01/20 09:08:57;;;;;;;20.85;6.03;;;;;;;7.73;88.93;99511.72;4973179;28;20090;-59
2021/01/20 09:11:25;;;;;;;21.85;6.60;;;;;;;7.72;88.74;99504.53;4972253;28;20442;-56
2021/01/20 09:13:54;;;;;;;23.13;5.97;;;;;;;7.72;88.45;99512.88;4972844;28;20090;-58
2021/01/20 09:16:25;;;;;;;17.92;5.68;;;;;;;7.70;88.46;99517.06;4971239;28;20066;-57
2021/01/20 09:18:52;;;;;;;19.57;5.87;;;;;;;7.70;88.42;99503.19;4972570;28;20427;-54
2021/01/20 09:21:19;;;;;;;20.25;6.18;;;;;;;7.73;88.24;99510.91;4971586;28;20278;-57
2021/01/20 09:23:48;;;;;;;22.02;6.82;;;;;;;7.69;88.09;99516.25;4970064;28;20134;-55
2021/01/20 09:26:15;;;;;;;20.10;5.80;;;;;;;7.72;88.23;99512.88;4971830;28;20061;-58
2021/01/20 09:28:42;;;;;;;21.73;5.85;;;;;;;7.75;87.91;99515.00;4973040;28;20055;-56
2021/01/20 09:31:09;;;;;;;20.38;5.60;;;;;;;7.78;87.99;99513.56;4971888;28;20548;-50
2021/01/20 09:33:36;;;;;;;26.08;5.65;;;;;;;7.79;87.83;99509.66;4971054;28;20134;-51
2021/01/20 09:36:03;;;;;;;20.48;6.25;;;;;;;7.81;87.64;99510.13;4972447;28;20046;-56
2021/01/20 09:38:30;;;;;;;22.25;6.18;;;;;;;7.80;87.65;99502.94;4971457;28;20059;-57
2021/01/20 09:41:01;;;;;;;22.30;5.90;;;;;;;7.80;87.39;99523.19;4967559;28;20084;-58
2021/01/20 09:43:27;;;;;;;25.73;6.22;;;;;;;7.80;86.99;99514.88;4970874;28;20062;-62
2021/01/20 09:45:55;;;;;;;19.85;5.38;;;;;;;7.79;86.82;99512.44;4969750;28;20133;-66
2021/01/20 09:48:22;;;;;;;19.50;5.57;;;;;;;7.80;86.92;99527.94;4968923;28;20141;-67
2021/01/20 09:50:49;;;;;;;17.90;5.15;;;;;;;7.84;86.67;99527.00;4970582;28;20540;-66
2021/01/20 09:53:16;;;;;;;20.38;5.40;;;;;;;7.85;86.66;99522.28;4976096;28;20558;-64
2021/01/20 09:55:42;;;;;;;26.88;6.03;;;;;;;7.85;86.63;99520.31;4972329;28;20043;-63
2021/01/20 09:58:10;;;;;;;20.60;5.35;;;;;;;7.83;86.46;99508.69;4972064;28;20043;-64
2021/01/20 10:00:37;;;;;;;21.10;5.60;;;;;;;7.85;86.16;99517.53;4971864;28;20559;-62
2021/01/20 10:03:06;;;;;;;19.20;5.45;;;;;;;7.90;86.23;99506.31;4971887;28;20073;-62
2021/01/20 10:05:34;;;;;;;25.77;6.63;;;;;;;7.91;85.97;99513.50;4972253;28;20051;-56
2021/01/20 10:08:01;;;;;;;23.35;6.07;;;;;;;7.90;85.49;99517.41;4970993;28;20073;-62
2021/01/20 10:10:28;;;;;;;17.40;4.97;;;;;;;7.92;85.66;99506.81;4971857;28;20141;-60
2021/01/20 10:12:55;;;;;;;19.20;5.05;;;;;;;7.95;85.37;99497.03;4971755;28;20685;-57
2021/01/20 10:15:23;;;;;;;19.58;5.40;;;;;;;7.94;85.13;99496.22;4969699;28;20550;-53
2021/01/20 10:17:52;;;;;;;19.25;5.43;;;;;;;7.95;84.87;99488.72;4971333;28;20078;-56
2021/01/20 10:20:20;;;;;;;17.88;4.95;;;;;;;7.97;84.93;99499.50;4968398;28;20071;-55
2021/01/20 10:22:47;;;;;;;16.30;4.70;;;;;;;7.99;84.78;99503.63;4970444;28;20047;-59
2021/01/20 10:25:15;;;;;;;21.17;4.88;;;;;;;7.98;84.28;99503.94;4971160;28;20166;-58
2021/01/20 10:27:42;;;;;;;20.13;5.65;;;;;;;7.98;84.42;99495.59;4970568;28;20102;-58
2021/01/20 10:30:09;;;;;;;17.40;5.43;;;;;;;7.99;84.41;99491.69;4969835;28;20089;-55
2021/01/20 10:32:37;;;;;;;16.65;4.43;;;;;;;8.01;84.26;99487.44;4971891;28;20058;-56
2021/01/20 10:35:08;;;;;;;18.70;4.65;;;;;;;8.03;84.23;99482.38;4970878;28;20133;-56
2021/01/20 10:37:36;;;;;;;16.52;4.75;;;;;;;8.08;83.97;99473.09;4952455;28;20816;-58
2021/01/20 10:40:04;;;;;;;20.60;4.88;;;;;;;8.13;83.80;99475.75;4968512;28;20090;-54
2021/01/20 10:42:31;;;;;;;19.10;5.07;;;;;;;8.13;83.34;99468.25;4971057;28;20149;-56
2021/01/20 10:44:57;;;;;;;19.92;5.53;;;;;;;8.27;83.33;99459.81;4971342;28;20424;-57
2021/01/20 10:47:24;;;;;;;19.25;5.18;;;;;;;8.41;82.68;99449.44;4971872;28;20047;-52
2021/01/20 10:49:52;;;;;;;19.65;5.03;;;;;;;8.45;81.84;99449.66;4970627;28;20081;-57
2021/01/20 10:52:19;;;;;;;15.10;5.00;;;;;;;8.50;82.52;99447.56;4971205;28;20043;-57
2021/01/20 10:54:46;;;;;;;16.05;4.03;;;;;;;8.57;81.92;99444.31;4971402;28;20074;-56
2021/01/20 10:57:12;;;;;;;23.85;5.30;;;;;;;8.66;81.86;99452.69;4971182;28;20405;-58
2021/01/20 10:59:41;;;;;;;19.88;4.90;;;;;;;8.62;81.20;99438.59;4971455;28;20070;-54
2021/01/20 11:02:09;;;;;;;17.85;4.70;;;;;;;8.63;81.16;99440.22;4962981;28;20051;-51
2021/01/20 11:04:36;;;;;;;13.68;4.30;;;;;;;8.66;80.67;99430.44;4974361;28;20038;-56
2021/01/20 11:07:04;;;;;;;12.38;4.18;;;;;;;8.70;80.75;99450.91;4975139;28;20050;-55
2021/01/20 11:09:30;;;;;;;20.60;5.35;;;;;;;8.72;80.93;99448.63;4975059;28;20122;-57
2021/01/20 11:11:58;;;;;;;17.52;4.88;;;;;;;8.60;80.69;99435.31;4974739;28;20043;-54
2021/01/20 11:14:25;;;;;;;20.90;4.82;;;;;;;8.59;80.69;99436.47;4974995;28;20046;-59
2021/01/20 11:16:52;;;;;;;24.13;5.57;;;;;;;8.52;80.82;99453.63;4973849;28;20416;-57
2021/01/20 11:19:19;;;;;;;16.95;4.72;;;;;;;8.47;80.96;99441.81;4974159;28;20443;-58
2021/01/20 11:21:46;;;;;;;21.05;5.85;;;;;;;8.40;81.27;99442.25;4974566;28;20166;-54
2021/01/20 11:24:17;;;;;;;17.00;5.25;;;;;;;8.36;81.45;99446.84;4974386;28;20057;-51
2021/01/20 11:26:45;;;;;;;14.65;4.35;;;;;;;8.30;81.58;99429.44;4974764;28;20046;-55
2021/01/20 11:29:13;;;;;;;20.90;5.05;;;;;;;8.26;82.31;99438.72;4974772;28;20042;-59
2021/01/20 11:31:40;;;;;;;17.17;4.53;;;;;;;8.24;82.32;99427.94;4973908;28;20141;-57
2021/01/20 11:34:07;;;;;;;18.83;4.32;;;;;;;8.25;82.44;99431.53;4972142;28;20085;-57
2021/01/20 11:36:34;;;;;;;15.98;3.97;;;;;;;8.25;82.44;99428.75;4973859;28;20079;-55
2021/01/20 11:39:01;;;;;;;20.08;4.10;;;;;;;8.28;82.73;99425.34;4972152;28;20047;-56
2021/01/20 11:41:28;;;;;;;18.42;4.35;;;;;;;8.26;82.29;99422.88;4973021;28;20069;-56
2021/01/20 11:43:55;;;;;;;12.10;3.17;;;;;;;8.30;82.23;99415.53;4974003;28;20050;-54
2021/01/20 11:46:22;;;;;;;16.75;4.35;;;;;;;8.32;81.99;99415.25;4971764;28;20449;-58